Time;durP1;ratioP1;P1;durP2;ratioP2;P2;SDS_P1;SDS_P2;PMS_P1;PMS_P2;Temp;Humidity;BMP_temperature;BMP_pressure;BME280_temperature;BME280_humidity;BME280_pressure;Samples;Min_cycle;Max_cycle;Signal;HPM_P1;HPM_P2
2022/08/31 00:04:01;;;;;;;;;;;14.10;99.90;;;;;;6247497;23;19950;-75
2022/08/31 00:06:33;;;;;;;;;;;14.00;99.90;;;;;;6221863;23;19916;-76
2022/08/31 00:08:59;;;;;;;;;;;14.00;99.90;;;;;;6221932;23;19912;-76
2022/08/31 00:11:29;;;;;;;;;;;13.90;99.90;;;;;;6221355;23;19912;-77
2022/08/31 00:14:00;;;;;;;;;;;13.80;99.90;;;;;;6221371;23;19915;-75
2022/08/31 00:16:26;;;;;;;;;;;13.70;99.90;;;;;;6222328;23;20274;-75
2022/08/31 00:18:52;;;;;;;;;;;13.70;99.90;;;;;;6246724;23;19946;-77
2022/08/31 00:21:22;;;;;;;;;;;13.60;99.90;;;;;;6220926;23;19911;-77
2022/08/31 00:23:48;;;;;;;;;;;13.60;99.90;;;;;;6220148;23;20260;-76
2022/08/31 00:26:15;;;;;;;;;;;13.50;99.90;;;;;;6220293;23;19939;-77
2022/08/31 00:28:40;;;;;;;;;;;13.50;99.90;;;;;;6221488;23;19912;-77
2022/08/31 00:31:06;;;;;;;;;;;13.50;99.90;;;;;;6221975;23;19979;-77
2022/08/31 00:33:32;;;;;;;;;;;13.40;99.90;;;;;;6222286;23;19912;-75
2022/08/31 00:35:57;;;;;;;;;;;13.40;99.90;;;;;;6221591;23;19911;-75
2022/08/31 00:38:23;;;;;;;;;;;13.30;99.90;;;;;;6247015;23;20226;-75
2022/08/31 00:40:48;;;;;;;;;;;13.30;99.90;;;;;;6220859;23;19938;-75
2022/08/31 00:43:34;;;;;;;;;;;13.30;99.90;;;;;;6246656;23;20222;-76
2022/08/31 00:46:00;;;;;;;;;;;13.20;99.90;;;;;;6220462;23;19977;-74
2022/08/31 00:48:25;;;;;;;;;;;13.20;99.90;;;;;;6221210;23;19911;-75
2022/08/31 00:50:51;;;;;;;;;;;13.20;99.90;;;;;;6221745;23;19915;-76
2022/08/31 00:53:17;;;;;;;;;;;13.20;99.90;;;;;;6221677;23;20324;-77
2022/08/31 00:55:43;;;;;;;;;;;13.20;99.90;;;;;;6221829;23;19915;-74
2022/08/31 00:58:10;;;;;;;;;;;13.10;99.90;;;;;;6221228;23;20006;-76
2022/08/31 01:00:36;;;;;;;;;;;13.10;99.90;;;;;;6246791;23;19918;-77
2022/08/31 01:03:03;;;;;;;;;;;13.00;99.90;;;;;;6246803;23;19998;-77
2022/08/31 01:05:29;;;;;;;;;;;13.00;99.90;;;;;;6221888;23;20310;-76
2022/08/31 01:07:56;;;;;;;;;;;12.90;99.90;;;;;;6245896;23;19919;-77
2022/08/31 01:10:24;;;;;;;;;;;12.90;99.90;;;;;;6221330;23;19919;-75
2022/08/31 01:12:51;;;;;;;;;;;12.80;99.90;;;;;;6221608;23;19911;-75
2022/08/31 01:15:17;;;;;;;;;;;12.80;99.90;;;;;;6245995;23;20341;-76
2022/08/31 01:17:44;;;;;;;;;;;12.60;99.90;;;;;;6246548;23;19911;-76
2022/08/31 01:20:14;;;;;;;;;;;12.60;99.90;;;;;;6220934;23;19919;-76
2022/08/31 01:22:44;;;;;;;;;;;12.50;99.90;;;;;;6221025;23;19915;-77
2022/08/31 01:25:10;;;;;;;;;;;12.40;99.90;;;;;;6246859;23;19918;-76
2022/08/31 01:27:36;;;;;;;;;;;12.40;99.90;;;;;;6221401;23;20368;-76
2022/08/31 01:30:08;;;;;;;;;;;12.40;99.90;;;;;;6220731;23;19911;-77
2022/08/31 01:32:34;;;;;;;;;;;12.30;99.90;;;;;;6220157;23;20000;-77
2022/08/31 01:34:59;;;;;;;;;;;12.30;99.90;;;;;;6221215;23;20211;-76
2022/08/31 01:37:25;;;;;;;;;;;12.20;99.90;;;;;;6220644;23;19965;-76
2022/08/31 01:39:51;;;;;;;;;;;12.20;99.90;;;;;;6220882;23;19953;-75
2022/08/31 01:42:17;;;;;;;;;;;12.10;99.90;;;;;;6219785;23;19926;-76
2022/08/31 01:44:42;;;;;;;;;;;12.10;99.90;;;;;;6220573;23;19915;-76
2022/08/31 01:47:08;;;;;;;;;;;11.90;99.90;;;;;;6246195;23;20369;-76
2022/08/31 01:49:34;;;;;;;;;;;11.80;99.90;;;;;;6220736;23;19915;-76
2022/08/31 01:51:59;;;;;;;;;;;11.90;99.90;;;;;;6221331;23;19918;-76
2022/08/31 01:54:26;;;;;;;;;;;11.90;99.90;;;;;;6220827;23;19912;-76
2022/08/31 01:56:53;;;;;;;;;;;11.90;99.90;;;;;;6221139;23;19911;-75
2022/08/31 01:59:20;;;;;;;;;;;11.80;99.90;;;;;;6221316;23;19918;-76
2022/08/31 02:01:47;;;;;;;;;;;11.70;99.90;;;;;;6220751;23;19983;-76
2022/08/31 02:04:13;;;;;;;;;;;11.70;99.90;;;;;;6220679;23;19915;-76
2022/08/31 02:06:41;;;;;;;;;;;11.60;99.90;;;;;;6221022;23;19916;-77
2022/08/31 02:09:07;;;;;;;;;;;11.50;99.90;;;;;;6246158;23;19923;-77
2022/08/31 02:11:33;;;;;;;;;;;11.40;99.90;;;;;;6245102;23;19918;-77
2022/08/31 02:13:58;;;;;;;;;;;11.40;99.90;;;;;;6245377;23;20297;-76
2022/08/31 02:16:24;;;;;;;;;;;11.30;99.90;;;;;;6245720;23;19912;-76
2022/08/31 02:18:50;;;;;;;;;;;11.30;99.90;;;;;;6219726;23;19915;-77
2022/08/31 02:21:15;;;;;;;;;;;11.30;99.90;;;;;;6219450;23;19911;-77
2022/08/31 02:23:41;;;;;;;;;;;11.20;99.90;;;;;;6220403;23;19919;-76
2022/08/31 02:26:09;;;;;;;;;;;11.30;99.90;;;;;;6245739;23;19915;-76
2022/08/31 02:28:35;;;;;;;;;;;11.20;99.90;;;;;;6221057;23;19911;-77
2022/08/31 02:31:01;;;;;;;;;;;11.20;99.90;;;;;;6246126;23;19912;-76
2022/08/31 02:33:27;;;;;;;;;;;11.20;99.90;;;;;;6220197;23;19990;-77
2022/08/31 02:35:53;;;;;;;;;;;11.40;99.90;;;;;;6220601;23;19911;-77
2022/08/31 02:38:18;;;;;;;;;;;11.20;99.90;;;;;;6220540;23;20230;-75
2022/08/31 02:40:44;;;;;;;;;;;11.20;99.90;;;;;;6219363;23;19912;-77
2022/08/31 02:43:10;;;;;;;;;;;11.20;99.90;;;;;;6219614;23;20329;-77
2022/08/31 02:45:37;;;;;;;;;;;11.20;99.90;;;;;;6246524;22;19912;-77
2022/08/31 02:48:04;;;;;;;;;;;11.10;99.90;;;;;;6225513;22;19954;-76
2022/08/31 02:50:30;;;;;;;;;;;11.10;99.90;;;;;;6249566;22;19915;-75
2022/08/31 02:52:55;;;;;;;;;;;11.10;99.90;;;;;;6250275;22;19933;-76
2022/08/31 02:55:22;;;;;;;;;;;11.10;99.90;;;;;;6225668;22;20294;-76
2022/08/31 02:57:48;;;;;;;;;;;11.10;99.90;;;;;;6225579;22;20233;-77
2022/08/31 03:00:14;;;;;;;;;;;11.10;99.90;;;;;;6225621;22;20335;-75
2022/08/31 03:02:40;;;;;;;;;;;11.00;99.90;;;;;;6251188;22;19919;-77
2022/08/31 03:05:09;;;;;;;;;;;11.10;99.90;;;;;;6225280;22;19917;-78
2022/08/31 03:07:35;;;;;;;;;;;11.00;99.90;;;;;;6225630;22;19986;-76
2022/08/31 03:10:03;;;;;;;;;;;10.90;99.90;;;;;;6225010;22;19911;-76
2022/08/31 03:12:29;;;;;;;;;;;10.90;99.90;;;;;;6249847;22;19911;-77
2022/08/31 03:14:54;;;;;;;;;;;10.90;99.90;;;;;;6224614;22;19956;-77
2022/08/31 03:17:20;;;;;;;;;;;10.80;99.90;;;;;;6225372;22;19911;-76
2022/08/31 03:19:45;;;;;;;;;;;10.80;99.90;;;;;;6224866;22;19918;-76
2022/08/31 03:22:13;;;;;;;;;;;10.80;99.90;;;;;;6250705;22;20380;-77
2022/08/31 03:24:39;;;;;;;;;;;10.80;99.90;;;;;;6225121;22;20357;-78
2022/08/31 03:27:04;;;;;;;;;;;10.70;99.90;;;;;;6225617;22;19950;-76
2022/08/31 03:29:30;;;;;;;;;;;10.80;99.90;;;;;;6225092;22;19911;-76
2022/08/31 03:31:55;;;;;;;;;;;10.70;99.90;;;;;;6225355;22;19911;-75
2022/08/31 03:34:21;;;;;;;;;;;10.60;99.90;;;;;;6225002;22;19917;-77
2022/08/31 03:36:47;;;;;;;;;;;10.60;99.90;;;;;;6225291;22;19965;-77
2022/08/31 03:39:12;;;;;;;;;;;10.60;99.90;;;;;;6224786;22;19915;-76
2022/08/31 03:41:38;;;;;;;;;;;10.60;99.90;;;;;;6224284;22;19911;-76
2022/08/31 03:44:04;;;;;;;;;;;10.60;99.90;;;;;;6224663;22;20226;-77
2022/08/31 03:46:31;;;;;;;;;;;10.70;99.90;;;;;;6249617;22;20246;-75
2022/08/31 03:48:57;;;;;;;;;;;10.50;99.90;;;;;;6225064;22;20065;-75
2022/08/31 03:51:23;;;;;;;;;;;10.50;99.90;;;;;;6224748;22;19915;-75
2022/08/31 03:53:49;;;;;;;;;;;10.50;99.90;;;;;;6225110;22;19911;-77
2022/08/31 03:56:14;;;;;;;;;;;10.50;99.90;;;;;;6225357;22;20310;-76
2022/08/31 03:58:40;;;;;;;;;;;10.50;99.90;;;;;;6225066;22;20314;-75
2022/08/31 04:01:05;;;;;;;;;;;10.50;99.90;;;;;;6225302;22;19986;-75
2022/08/31 04:03:31;;;;;;;;;;;10.50;99.90;;;;;;6225158;22;19915;-76
2022/08/31 04:05:57;;;;;;;;;;;10.50;99.90;;;;;;6224580;22;19915;-77
2022/08/31 04:08:24;;;;;;;;;;;10.50;99.90;;;;;;6224597;22;19986;-77
2022/08/31 04:10:51;;;;;;;;;;;10.50;99.90;;;;;;6248970;22;19938;-76
2022/08/31 04:13:16;;;;;;;;;;;10.50;99.90;;;;;;6225221;22;19915;-77
2022/08/31 04:15:42;;;;;;;;;;;10.50;99.90;;;;;;6225232;22;19958;-75
2022/08/31 04:18:07;;;;;;;;;;;10.50;99.90;;;;;;6225177;22;19911;-75
2022/08/31 04:20:39;;;;;;;;;;;10.50;99.90;;;;;;6224690;22;19964;-77
2022/08/31 04:23:08;;;;;;;;;;;10.30;99.90;;;;;;6225293;22;20276;-80
2022/08/31 04:36:01;;;;;;;;;;;10.50;99.90;;;;;;6238209;22;19910;-78
2022/08/31 04:38:26;;;;;;;;;;;10.50;99.90;;;;;;6222373;22;19915;-80
2022/08/31 04:40:52;;;;;;;;;;;10.50;99.90;;;;;;6221478;22;19926;-80
2022/08/31 04:43:23;;;;;;;;;;;10.50;99.90;;;;;;6209120;23;19915;-80
2022/08/31 04:45:57;;;;;;;;;;;10.50;99.90;;;;;;6173242;23;19918;-80
2022/08/31 04:48:25;;;;;;;;;;;10.50;99.90;;;;;;6172734;23;19918;-80
2022/08/31 04:50:58;;;;;;;;;;;10.50;99.90;;;;;;6196275;23;19919;-79
2022/08/31 04:53:24;;;;;;;;;;;10.60;99.90;;;;;;6196637;23;19912;-80
2022/08/31 04:55:52;;;;;;;;;;;10.50;99.90;;;;;;6195267;23;19911;-81
2022/08/31 04:58:19;;;;;;;;;;;10.50;99.90;;;;;;6194478;23;20514;-80
2022/08/31 05:00:47;;;;;;;;;;;10.50;99.90;;;;;;6194706;23;19912;-79
2022/08/31 05:03:13;;;;;;;;;;;10.60;99.90;;;;;;6195668;23;19915;-80
2022/08/31 05:05:39;;;;;;;;;;;10.60;99.90;;;;;;6195866;23;19986;-81
2022/08/31 05:08:07;;;;;;;;;;;10.60;99.90;;;;;;6195939;23;19918;-81
2022/08/31 05:10:36;;;;;;;;;;;10.60;99.90;;;;;;6196230;23;19911;-82
2022/08/31 05:13:02;;;;;;;;;;;10.60;99.90;;;;;;6171682;23;19918;-81
2022/08/31 05:15:28;;;;;;;;;;;10.60;99.90;;;;;;6221454;23;19911;-81
2022/08/31 05:17:54;;;;;;;;;;;10.70;99.90;;;;;;6196232;23;19912;-80
2022/08/31 05:20:24;;;;;;;;;;;10.70;99.90;;;;;;6195566;23;20238;-80
2022/08/31 05:22:50;;;;;;;;;;;10.70;99.90;;;;;;6196252;23;19923;-79
2022/08/31 05:25:21;;;;;;;;;;;10.70;99.90;;;;;;6195891;23;19912;-80
2022/08/31 05:27:55;;;;;;;;;;;10.70;99.90;;;;;;6196567;23;20026;-80
2022/08/31 05:30:24;;;;;;;;;;;10.80;99.90;;;;;;6196006;23;19911;-79
2022/08/31 05:32:55;;;;;;;;;;;10.80;99.90;;;;;;6195730;23;20203;-80
2022/08/31 05:35:30;;;;;;;;;;;10.90;99.90;;;;;;6196102;23;19987;-80
2022/08/31 05:37:58;;;;;;;;;;;11.00;99.90;;;;;;6196482;23;19911;-80
2022/08/31 05:40:24;;;;;;;;;;;11.20;99.90;;;;;;6195959;23;19957;-80
2022/08/31 05:42:52;;;;;;;;;;;11.40;99.90;;;;;;6196260;23;19919;-80
2022/08/31 05:45:35;;;;;;;;;;;;;;;;;;;;;
2022/08/31 05:48:15;;;;;;;;;;;11.80;99.90;;;;;;6220184;23;19912;-81
2022/08/31 05:50:47;;;;;;;;;;;12.10;99.90;;;;;;6195464;23;19911;-80
2022/08/31 05:53:15;;;;;;;;;;;12.40;99.90;;;;;;6196173;23;19918;-80
2022/08/31 05:55:44;;;;;;;;;;;12.70;99.90;;;;;;6195835;23;19950;-81
2022/08/31 05:58:22;;;;;;;;;;;12.90;99.90;;;;;;6196285;23;19934;-80
2022/08/31 06:00:58;;;;;;;;;;;13.20;99.90;;;;;;6173992;23;20336;-81
2022/08/31 06:03:28;;;;;;;;;;;13.40;99.90;;;;;;6195878;23;19915;-81
2022/08/31 06:06:18;;;;;;;;;;;;;;;;;;;;;
2022/08/31 06:11:51;;;;;;;;;;;14.10;99.90;;;;;;6215934;23;20322;-81
2022/08/31 06:14:29;;;;;;;;;;;14.40;99.90;;;;;;6193404;23;20318;-81
2022/08/31 06:17:11;;;;;;;;;;;14.50;99.90;;;;;;6192845;23;19934;-81
2022/08/31 06:19:42;;;;;;;;;;;14.70;99.90;;;;;;6190313;23;19938;-81
2022/08/31 06:22:24;;;;;;;;;;;;;;;;;;;;;
2022/08/31 06:25:09;;;;;;;;;;;15.00;99.90;;;;;;6201642;23;20237;-82
2022/08/31 06:28:23;;;;;;;;;;;;;;;;;;;;;
2022/08/31 06:31:30;;;;;;;;;;;15.30;99.90;;;;;;6184561;23;20241;-81
2022/08/31 06:34:10;;;;;;;;;;;15.40;99.90;;;;;;6196882;23;20306;-81
2022/08/31 06:36:42;;;;;;;;;;;15.50;99.90;;;;;;6195766;23;20310;-81
2022/08/31 06:39:17;;;;;;;;;;;15.70;99.90;;;;;;6169252;23;19923;-81
2022/08/31 06:41:48;;;;;;;;;;;15.80;99.90;;;;;;6195399;23;19912;-81
2022/08/31 06:44:28;;;;;;;;;;;16.00;99.90;;;;;;6195505;23;20349;-80
2022/08/31 06:46:57;;;;;;;;;;;16.10;99.90;;;;;;6196044;23;20062;-80
2022/08/31 06:49:26;;;;;;;;;;;16.20;99.90;;;;;;6195236;23;19912;-81
2022/08/31 06:51:54;;;;;;;;;;;16.30;99.90;;;;;;6194018;23;20319;-81
2022/08/31 06:54:36;;;;;;;;;;;16.50;99.90;;;;;;6195390;23;19918;-80
2022/08/31 06:57:02;;;;;;;;;;;16.50;99.90;;;;;;6194429;23;19918;-81
2022/08/31 06:59:52;;;;;;;;;;;16.70;99.90;;;;;;6195122;23;19911;-81
2022/08/31 07:02:29;;;;;;;;;;;16.90;99.90;;;;;;6196890;23;19938;-80
2022/08/31 07:05:22;;;;;;;;;;;17.00;99.90;;;;;;6192370;23;19990;-81
2022/08/31 07:08:27;;;;;;;;;;;17.00;99.90;;;;;;6219276;23;19958;-81
2022/08/31 07:14:20;;;;;;;;;;;17.40;99.90;;;;;;6220118;23;19916;-81
2022/08/31 07:16:49;;;;;;;;;;;17.40;99.90;;;;;;6195618;23;19990;-81
2022/08/31 07:19:29;;;;;;;;;;;17.60;99.90;;;;;;6197354;23;20320;-83
2022/08/31 07:22:06;;;;;;;;;;;17.70;99.90;;;;;;6222236;23;19915;-78
2022/08/31 07:24:38;;;;;;;;;;;17.80;99.90;;;;;;6195308;23;20314;-81
2022/08/31 07:27:21;;;;;;;;;;;17.90;99.90;;;;;;6198699;23;19911;-79
2022/08/31 07:29:46;;;;;;;;;;;17.90;99.90;;;;;;6194918;23;20264;-80
2022/08/31 07:32:16;;;;;;;;;;;18.00;99.90;;;;;;6195103;23;19915;-80
2022/08/31 07:35:04;;;;;;;;;;;18.00;99.90;;;;;;6196470;23;19920;-82
2022/08/31 07:43:36;;;;;;;;;;;18.00;99.90;;;;;;6219744;23;19922;-81
2022/08/31 07:46:07;;;;;;;;;;;18.20;99.90;;;;;;6195032;23;20227;-81
2022/08/31 07:48:52;;;;;;;;;;;18.30;99.90;;;;;;6173378;23;19918;-80
2022/08/31 07:55:06;;;;;;;;;;;18.50;99.90;;;;;;6222354;23;19918;-80
2022/08/31 07:57:42;;;;;;;;;;;18.50;99.90;;;;;;6192648;23;19921;-81
2022/08/31 08:00:27;;;;;;;;;;;;;;;;;;;;;
2022/08/31 08:03:24;;;;;;;;;;;18.70;99.90;;;;;;6218288;23;19918;-79
2022/08/31 08:05:50;;;;;;;;;;;18.70;99.90;;;;;;6194275;23;19961;-79
2022/08/31 08:08:21;;;;;;;;;;;18.90;99.90;;;;;;6219602;23;19930;-81
2022/08/31 08:10:47;;;;;;;;;;;18.90;99.90;;;;;;6219756;23;19912;-79
2022/08/31 08:13:23;;;;;;;;;;;19.00;99.90;;;;;;6194850;23;19919;-79
2022/08/31 08:15:49;;;;;;;;;;;19.20;99.90;;;;;;6194426;23;19911;-79
2022/08/31 08:18:17;;;;;;;;;;;19.20;99.90;;;;;;6194843;23;19911;-80
2022/08/31 08:20:43;;;;;;;;;;;19.30;99.90;;;;;;6196308;23;19911;-80
2022/08/31 08:23:12;;;;;;;;;;;19.30;99.90;;;;;;6197185;23;19916;-81
2022/08/31 08:25:42;;;;;;;;;;;19.10;99.90;;;;;;6221755;23;19918;-79
2022/08/31 08:28:07;;;;;;;;;;;19.10;99.90;;;;;;6195950;23;19915;-79
2022/08/31 08:30:33;;;;;;;;;;;19.10;99.90;;;;;;6221866;23;19947;-79
2022/08/31 08:33:02;;;;;;;;;;;19.10;99.90;;;;;;6199205;23;19912;-80
2022/08/31 08:35:29;;;;;;;;;;;19.10;99.90;;;;;;6201614;23;19943;-82
2022/08/31 08:37:57;;;;;;;;;;;19.10;99.90;;;;;;6221661;23;19918;-81
2022/08/31 08:40:45;;;;;;;;;;;19.50;99.90;;;;;;6196626;23;19933;-84
2022/08/31 08:43:14;;;;;;;;;;;19.70;99.90;;;;;;6221675;23;19923;-80
2022/08/31 08:45:44;;;;;;;;;;;20.10;99.90;;;;;;6248670;23;19918;-82
2022/08/31 08:48:16;;;;;;;;;;;20.20;99.90;;;;;;6196735;23;20306;-82
2022/08/31 08:50:44;;;;;;;;;;;20.20;99.90;;;;;;6197232;23;19966;-77
2022/08/31 08:53:29;;;;;;;;;;;20.30;99.90;;;;;;6221780;23;19912;-80
2022/08/31 08:56:00;;;;;;;;;;;20.40;99.90;;;;;;6222011;23;19994;-80
2022/08/31 08:58:26;;;;;;;;;;;20.60;99.90;;;;;;6196484;23;19912;-81
2022/08/31 09:00:52;;;;;;;;;;;20.40;99.90;;;;;;6196450;23;19946;-76
2022/08/31 09:03:37;;;;;;;;;;;20.40;99.90;;;;;;6195980;23;19994;-76
2022/08/31 09:06:11;;;;;;;;;;;20.70;99.90;;;;;;6196235;23;19912;-76
2022/08/31 09:08:41;;;;;;;;;;;20.60;99.90;;;;;;6221307;23;19911;-76
2022/08/31 09:11:19;;;;;;;;;;;20.60;99.90;;;;;;6196184;23;19911;-77
2022/08/31 09:13:51;;;;;;;;;;;20.70;99.90;;;;;;6196422;23;19951;-77
2022/08/31 09:16:24;;;;;;;;;;;20.90;99.90;;;;;;6221502;23;19926;-77
2022/08/31 09:21:53;;;;;;;;;;;20.80;99.90;;;;;;6206917;23;19911;-77
2022/08/31 09:24:25;;;;;;;;;;;21.00;99.90;;;;;;6196773;23;19981;-78
2022/08/31 09:27:00;;;;;;;;;;;20.90;99.90;;;;;;6196936;23;19943;-80
2022/08/31 09:29:28;;;;;;;;;;;21.00;99.90;;;;;;6196764;23;19958;-79
2022/08/31 09:32:00;;;;;;;;;;;21.30;99.90;;;;;;6221622;23;19912;-76
2022/08/31 09:41:04;;;;;;;;;;;20.80;99.90;;;;;;6179914;23;19919;-73
2022/08/31 09:44:04;;;;;;;;;;;21.00;99.90;;;;;;6142188;23;19963;-77
2022/08/31 09:47:10;;;;;;;;;;;;;;;;;;;;;
2022/08/31 09:49:57;;;;;;;;;;;21.10;99.90;;;;;;6140706;23;20338;-76
2022/08/31 09:55:34;;;;;;;;;;;21.40;99.30;;;;;;6190107;23;19918;-78
2022/08/31 09:58:20;;;;;;;;;;;;;;;;;;;;;
2022/08/31 10:00:53;;;;;;;;;;;20.90;98.80;;;;;;6190323;23;19919;-77
2022/08/31 10:03:28;;;;;;;;;;;21.00;99.90;;;;;;6191148;23;19986;-75
2022/08/31 10:05:57;;;;;;;;;;;21.30;98.40;;;;;;6190903;23;20389;-79
2022/08/31 10:08:37;;;;;;;;;;;21.20;97.10;;;;;;6216093;23;19978;-78
2022/08/31 10:11:21;;;;;;;;;;;21.30;97.40;;;;;;6166792;23;19919;-77
2022/08/31 10:14:02;;;;;;;;;;;21.50;96.30;;;;;;6216284;23;19920;-78
2022/08/31 10:16:41;;;;;;;;;;;21.40;96.40;;;;;;6191279;23;19923;-77
2022/08/31 10:19:32;;;;;;;;;;;21.40;97.10;;;;;;6166830;23;19990;-75
2022/08/31 10:22:24;;;;;;;;;;;21.70;96.90;;;;;;6166409;23;20378;-76
2022/08/31 10:25:25;;;;;;;;;;;21.50;95.90;;;;;;6190904;23;19923;-77
2022/08/31 10:28:16;;;;;;;;;;;21.80;96.80;;;;;;6130553;23;20378;-76
2022/08/31 10:30:58;;;;;;;;;;;21.80;96.20;;;;;;6163916;23;20287;-76
2022/08/31 10:35:02;;;;;;;;;;;21.90;96.80;;;;;;6190351;23;19911;-77
2022/08/31 10:36:26;;;;;;;;;;;22.10;95.70;;;;;;6202396;23;19915;-77
2022/08/31 10:38:56;;;;;;;;;;;22.30;95.90;;;;;;6194792;23;20330;-78
2022/08/31 10:41:29;;;;;;;;;;;22.30;95.70;;;;;;6220920;23;19912;-76
2022/08/31 10:44:25;;;;;;;;;;;22.10;94.60;;;;;;6194475;23;19920;-77
2022/08/31 10:47:18;;;;;;;;;;;22.20;94.50;;;;;;6224294;23;19989;-78
2022/08/31 10:49:49;;;;;;;;;;;21.90;94.50;;;;;;6195421;23;19919;-78
2022/08/31 10:52:28;;;;;;;;;;;21.60;94.80;;;;;;6220673;23;19939;-76
2022/08/31 10:54:53;;;;;;;;;;;21.80;95.50;;;;;;6194182;23;19911;-76
2022/08/31 10:57:38;;;;;;;;;;;21.90;96.60;;;;;;6196135;23;19926;-76
2022/08/31 11:00:40;;;;;;;;;;;22.10;97.70;;;;;;6195536;23;20203;-77
2022/08/31 11:03:14;;;;;;;;;;;22.00;96.90;;;;;;6219202;23;19969;-77
2022/08/31 11:05:47;;;;;;;;;;;22.10;96.70;;;;;;6217487;23;19911;-79
2022/08/31 11:08:24;;;;;;;;;;;22.10;96.90;;;;;;6195920;23;19911;-77
2022/08/31 11:10:56;;;;;;;;;;;22.30;96.80;;;;;;6195854;23;19912;-79
2022/08/31 11:13:59;;;;;;;;;;;22.30;96.00;;;;;;6195666;23;19918;-79
2022/08/31 11:16:46;;;;;;;;;;;22.40;96.80;;;;;;6192653;23;19923;-74
2022/08/31 11:19:19;;;;;;;;;;;22.10;97.30;;;;;;6219424;23;20234;-77
2022/08/31 11:25:13;;;;;;;;;;;21.70;97.90;;;;;;6246213;23;20265;-75
2022/08/31 11:27:43;;;;;;;;;;;21.90;97.50;;;;;;6246209;23;19963;-74
2022/08/31 11:30:18;;;;;;;;;;;22.00;97.10;;;;;;6219194;23;19912;-77
2022/08/31 11:32:58;;;;;;;;;;;22.00;97.20;;;;;;6194429;23;20238;-80
2022/08/31 11:35:46;;;;;;;;;;;21.70;98.40;;;;;;6194282;23;19990;-78
2022/08/31 11:38:41;;;;;;;;;;;21.90;98.60;;;;;;6219860;23;20033;-77
2022/08/31 11:41:10;;;;;;;;;;;21.80;98.60;;;;;;6174985;23;20334;-76
2022/08/31 11:43:36;;;;;;;;;;;21.70;99.20;;;;;;6219410;23;19915;-79
2022/08/31 11:46:24;;;;;;;;;;;21.90;97.70;;;;;;6194737;23;20325;-81
2022/08/31 11:49:12;;;;;;;;;;;22.00;98.10;;;;;;6195418;23;19916;-81
2022/08/31 11:51:39;;;;;;;;;;;22.00;97.50;;;;;;6219973;23;19915;-74
2022/08/31 11:54:11;;;;;;;;;;;22.10;97.40;;;;;;6220644;23;19926;-76
2022/08/31 11:56:37;;;;;;;;;;;22.20;97.00;;;;;;6197969;23;20226;-74
2022/08/31 11:59:25;;;;;;;;;;;22.20;97.20;;;;;;6224341;22;19903;-80
2022/08/31 12:01:53;;;;;;;;;;;22.10;96.40;;;;;;6217577;22;19910;-76
2022/08/31 12:15:15;;;;;;;;;;;22.20;96.10;;;;;;6252454;22;19916;-79
2022/08/31 12:18:09;;;;;;;;;;;22.10;96.20;;;;;;6225416;22;19951;-79
2022/08/31 12:27:11;;;;;;;;;;;22.20;95.20;;;;;;6278629;22;19914;-77
2022/08/31 12:29:38;;;;;;;;;;;22.20;95.90;;;;;;6223949;22;19969;-78
2022/08/31 12:32:22;;;;;;;;;;;22.00;95.60;;;;;;6250852;22;19946;-74
2022/08/31 12:35:10;;;;;;;;;;;21.90;95.80;;;;;;6226050;22;19915;-77
2022/08/31 12:37:41;;;;;;;;;;;22.00;95.60;;;;;;6225638;22;19986;-77
2022/08/31 12:40:13;;;;;;;;;;;22.10;96.80;;;;;;6250387;22;19911;-79
2022/08/31 12:42:57;;;;;;;;;;;22.00;96.90;;;;;;6225758;22;20322;-79
2022/08/31 12:45:46;;;;;;;;;;;22.10;97.20;;;;;;6226270;22;19912;-76
2022/08/31 12:48:21;;;;;;;;;;;22.20;97.20;;;;;;6135580;23;19923;-78
2022/08/31 12:50:56;;;;;;;;;;;22.20;97.40;;;;;;6220727;22;19911;-74
2022/08/31 12:56:58;;;;;;;;;;;22.20;96.40;;;;;;6278837;22;19917;-76
2022/08/31 12:59:24;;;;;;;;;;;21.80;96.50;;;;;;6226291;22;20310;-77
2022/08/31 13:05:29;;;;;;;;;;;21.60;97.40;;;;;;6278251;22;19969;-80
2022/08/31 13:07:56;;;;;;;;;;;21.80;96.80;;;;;;6251375;22;19912;-76
2022/08/31 13:10:31;;;;;;;;;;;21.80;97.10;;;;;;6225691;22;19957;-75
2022/08/31 13:13:01;;;;;;;;;;;21.90;96.70;;;;;;6226406;22;19948;-79
2022/08/31 13:15:35;;;;;;;;;;;22.00;97.40;;;;;;6220692;23;19982;-79
2022/08/31 13:18:01;;;;;;;;;;;22.00;97.10;;;;;;6196056;23;19954;-77
2022/08/31 13:20:47;;;;;;;;;;;22.00;98.00;;;;;;6194629;23;19953;-77
2022/08/31 13:23:39;;;;;;;;;;;22.10;96.70;;;;;;6057267;23;19983;-78
2022/08/31 13:26:21;;;;;;;;;;;22.10;97.60;;;;;;6220492;23;19911;-74
2022/08/31 13:28:49;;;;;;;;;;;21.90;98.10;;;;;;6246900;23;19961;-75
2022/08/31 13:31:21;;;;;;;;;;;22.10;98.20;;;;;;6219677;23;20306;-72
2022/08/31 13:34:06;;;;;;;;;;;22.20;96.90;;;;;;6220110;23;19912;-78
2022/08/31 13:36:57;;;;;;;;;;;22.00;97.30;;;;;;6195627;23;20229;-78
2022/08/31 14:00:31;;;;;;;;;;;22.50;95.00;;;;;;6041913;23;19920;-80
2022/08/31 14:03:27;;;;;;;;;;;22.40;95.30;;;;;;6018888;23;19925;-77
2022/08/31 14:06:15;;;;;;;;;;;22.40;94.80;;;;;;6042899;23;20343;-76
2022/08/31 14:08:50;;;;;;;;;;;22.60;94.50;;;;;;6129223;23;19923;-78
2022/08/31 14:14:34;;;;;;;;;;;22.50;95.20;;;;;;6018349;23;19956;-76
2022/08/31 14:17:02;;;;;;;;;;;22.50;95.00;;;;;;6169907;23;20230;-77
2022/08/31 14:19:28;;;;;;;;;;;22.50;95.70;;;;;;6194801;23;19919;-79
2022/08/31 14:21:54;;;;;;;;;;;22.30;94.90;;;;;;6194711;23;19917;-78
2022/08/31 14:24:19;;;;;;;;;;;22.40;94.70;;;;;;6244797;23;19915;-77
2022/08/31 14:26:45;;;;;;;;;;;22.50;95.90;;;;;;6244981;23;19965;-79
2022/08/31 14:29:15;;;;;;;;;;;22.30;95.90;;;;;;6194832;23;19983;-77
2022/08/31 14:31:48;;;;;;;;;;;22.30;95.40;;;;;;6194547;23;20015;-77
2022/08/31 14:34:25;;;;;;;;;;;22.30;96.00;;;;;;6194388;23;19912;-76
2022/08/31 14:37:18;;;;;;;;;;;22.30;95.40;;;;;;6194116;23;19915;-79
2022/08/31 14:39:45;;;;;;;;;;;22.50;95.70;;;;;;6242854;23;19911;-76
2022/08/31 14:42:23;;;;;;;;;;;22.80;95.80;;;;;;6194049;23;20341;-80
2022/08/31 14:44:55;;;;;;;;;;;22.80;96.30;;;;;;6270035;22;20357;-79
2022/08/31 14:47:22;;;;;;;;;;;23.10;95.70;;;;;;6194652;23;20239;-77
2022/08/31 14:49:48;;;;;;;;;;;22.90;96.30;;;;;;6194440;23;19911;-77
2022/08/31 14:52:14;;;;;;;;;;;22.90;96.50;;;;;;6220433;23;20376;-73
2022/08/31 14:54:40;;;;;;;;;;;22.80;96.30;;;;;;6271276;22;20319;-77
2022/08/31 14:57:24;;;;;;;;;;;22.40;96.60;;;;;;6226338;23;19918;-79
2022/08/31 14:59:56;;;;;;;;;;;22.60;96.60;;;;;;6200933;23;20318;-80
2022/08/31 15:02:34;;;;;;;;;;;22.70;96.90;;;;;;6208494;23;19926;-81
2022/08/31 15:05:14;;;;;;;;;;;22.80;96.10;;;;;;6246309;23;19939;-75
2022/08/31 15:07:51;;;;;;;;;;;22.40;97.10;;;;;;6193669;23;19962;-76
2022/08/31 15:10:26;;;;;;;;;;;22.20;97.10;;;;;;6281774;22;19939;-84
2022/08/31 15:13:04;;;;;;;;;;;22.10;97.40;;;;;;6220888;23;19911;-80
2022/08/31 15:15:49;;;;;;;;;;;21.60;99.00;;;;;;6226504;23;19916;-74
2022/08/31 15:22:08;;;;;;;;;;;21.40;98.80;;;;;;6246725;23;19911;-79
2022/08/31 15:24:59;;;;;;;;;;;21.30;99.50;;;;;;6216022;23;19922;-80
2022/08/31 15:27:50;;;;;;;;;;;21.20;99.90;;;;;;6198804;23;20437;-78
2022/08/31 15:41:27;;;;;;;;;;;;;;;;;;;;;
2022/08/31 15:44:11;;;;;;;;;;;20.60;99.90;;;;;;5962448;24;20323;-81
2022/08/31 15:49:22;;;;;;;;;;;20.30;99.90;;;;;;5958312;24;19918;-77
2022/08/31 15:51:52;;;;;;;;;;;20.20;99.90;;;;;;6042809;23;19981;-77
2022/08/31 15:54:25;;;;;;;;;;;20.10;99.90;;;;;;6176904;23;20274;-76
2022/08/31 15:56:54;;;;;;;;;;;20.20;99.90;;;;;;6219967;23;19981;-76
2022/08/31 15:59:23;;;;;;;;;;;20.10;99.90;;;;;;6219872;23;19916;-76
2022/08/31 16:01:50;;;;;;;;;;;20.00;99.90;;;;;;6220217;23;19954;-76
2022/08/31 16:04:22;;;;;;;;;;;19.90;99.90;;;;;;6219682;23;19916;-76
2022/08/31 16:06:48;;;;;;;;;;;20.00;99.90;;;;;;6195192;23;20255;-75
2022/08/31 16:10:11;;;;;;;;;;;19.90;99.90;;;;;;6220036;23;19915;-80
2022/08/31 16:12:37;;;;;;;;;;;19.80;99.90;;;;;;6195166;23;19919;-76
2022/08/31 16:15:04;;;;;;;;;;;19.70;99.90;;;;;;6206413;22;20432;-76
2022/08/31 16:17:32;;;;;;;;;;;19.60;99.90;;;;;;6225241;22;19915;-76
2022/08/31 16:19:57;;;;;;;;;;;19.60;99.90;;;;;;6199928;22;20313;-79
2022/08/31 16:22:26;;;;;;;;;;;19.60;99.90;;;;;;6225928;22;19918;-76
2022/08/31 16:24:51;;;;;;;;;;;19.50;99.90;;;;;;6278598;22;19903;-79
2022/08/31 16:27:18;;;;;;;;;;;19.50;99.90;;;;;;6232325;22;19986;-78
2022/08/31 16:29:44;;;;;;;;;;;19.50;99.90;;;;;;6226036;22;19946;-75
2022/08/31 16:32:10;;;;;;;;;;;19.50;99.90;;;;;;6250908;22;19916;-75
2022/08/31 16:34:41;;;;;;;;;;;19.50;99.90;;;;;;6249613;22;20307;-76
2022/08/31 16:37:51;;;;;;;;;;;19.40;99.90;;;;;;6243417;23;19911;-78
2022/08/31 16:40:31;;;;;;;;;;;19.50;99.90;;;;;;6244414;23;20353;-77
2022/08/31 16:43:15;;;;;;;;;;;19.40;99.90;;;;;;6224483;23;19918;-74
2022/08/31 16:45:41;;;;;;;;;;;19.30;99.90;;;;;;6220917;23;20262;-80
2022/08/31 16:51:39;;;;;;;;;;;19.20;99.90;;;;;;6189532;23;19910;-66
2022/08/31 16:54:08;;;;;;;;;;;19.10;99.90;;;;;;6220417;23;19911;-66